Time;durP1;ratioP1;P1;durP2;ratioP2;P2;SDS_P1;SDS_P2;PMS_P1;PMS_P2;Temp;Humidity;BMP_temperature;BMP_pressure;BME280_temperature;BME280_humidity;BME280_pressure;Samples;Min_cycle;Max_cycle;Signal;HPM_P1;HPM_P2
2021/01/11 00:00:51;;;;;;;;;;;19.80;34.40;;;;;;491718;240;1269;-54
2021/01/11 00:02:52;;;;;;;;;;;19.80;34.40;;;;;;491643;240;1023;-54
2021/01/11 00:04:53;;;;;;;;;;;19.80;34.40;;;;;;491620;240;1265;-54
2021/01/11 00:06:55;;;;;;;;;;;19.80;34.40;;;;;;491743;240;1099;-54
2021/01/11 00:08:56;;;;;;;;;;;19.80;34.40;;;;;;491619;240;2131;-54
2021/01/11 00:10:58;;;;;;;;;;;19.80;33.00;;;;;;491613;240;1130;-54
2021/01/11 00:12:59;;;;;;;;;;;19.80;34.40;;;;;;491657;240;1137;-54
2021/01/11 00:15:00;;;;;;;;;;;19.80;34.40;;;;;;491699;240;1161;-54
2021/01/11 00:17:01;;;;;;;;;;;19.80;34.40;;;;;;491605;240;1293;-54
2021/01/11 00:19:03;;;;;;;;;;;19.80;34.30;;;;;;491589;240;1179;-54
2021/01/11 00:21:04;;;;;;;;;;;19.80;34.30;;;;;;491694;240;987;-55
2021/01/11 00:23:05;;;;;;;;;;;19.80;34.30;;;;;;491614;240;1108;-54
2021/01/11 00:25:06;;;;;;;;;;;19.80;34.30;;;;;;491687;240;1048;-54
2021/01/11 00:27:08;;;;;;;;;;;19.80;34.30;;;;;;491786;240;1171;-54
2021/01/11 00:29:09;;;;;;;;;;;19.80;34.30;;;;;;491625;240;2385;-54
2021/01/11 00:31:10;;;;;;;;;;;19.90;34.30;;;;;;491604;240;1388;-54
2021/01/11 00:33:12;;;;;;;;;;;19.80;34.30;;;;;;491581;240;1183;-54
2021/01/11 00:35:13;;;;;;;;;;;19.80;34.20;;;;;;491603;240;1260;-54
2021/01/11 00:37:14;;;;;;;;;;;19.80;34.30;;;;;;491661;240;1288;-54
2021/01/11 00:39:15;;;;;;;;;;;19.80;34.30;;;;;;491851;240;1130;-54
2021/01/11 00:41:17;;;;;;;;;;;19.90;34.30;;;;;;491648;240;1153;-54
2021/01/11 00:43:18;;;;;;;;;;;19.80;34.30;;;;;;491641;240;1069;-54
2021/01/11 00:45:19;;;;;;;;;;;19.90;34.30;;;;;;491682;240;1370;-54
2021/01/11 00:47:20;;;;;;;;;;;19.80;34.30;;;;;;491551;240;1136;-54
2021/01/11 00:49:22;;;;;;;;;;;19.80;34.20;;;;;;491623;238;2191;-54
2021/01/11 00:51:23;;;;;;;;;;;19.90;34.30;;;;;;491627;240;1047;-54
2021/01/11 00:53:24;;;;;;;;;;;19.90;34.30;;;;;;491655;240;1196;-54
2021/01/11 00:55:26;;;;;;;;;;;19.90;34.30;;;;;;491597;240;1214;-54
2021/01/11 00:57:27;;;;;;;;;;;19.90;34.30;;;;;;491681;240;1254;-54
2021/01/11 00:59:28;;;;;;;;;;;19.90;34.30;;;;;;491648;240;1323;-54
2021/01/11 01:01:29;;;;;;;;;;;19.80;34.20;;;;;;491640;240;1143;-53
2021/01/11 01:03:31;;;;;;;;;;;19.90;34.20;;;;;;491774;240;1084;-54
2021/01/11 01:05:32;;;;;;;;;;;19.90;34.30;;;;;;491736;240;1263;-54
2021/01/11 01:07:33;;;;;;;;;;;19.90;34.30;;;;;;491678;240;1212;-54
2021/01/11 01:09:35;;;;;;;;;;;19.90;34.30;;;;;;491806;240;2144;-54
2021/01/11 01:11:36;;;;;;;;;;;19.90;34.30;;;;;;491778;240;1164;-54
2021/01/11 01:13:37;;;;;;;;;;;19.90;34.30;;;;;;491660;240;1162;-54
2021/01/11 01:15:38;;;;;;;;;;;19.90;32.90;;;;;;491642;240;1128;-54
2021/01/11 01:17:40;;;;;;;;;;;19.90;34.20;;;;;;491623;240;1196;-54
2021/01/11 01:19:41;;;;;;;;;;;19.90;34.20;;;;;;491612;240;1166;-54
2021/01/11 01:21:42;;;;;;;;;;;19.90;34.20;;;;;;491572;240;1208;-55
2021/01/11 01:23:43;;;;;;;;;;;19.90;34.20;;;;;;491743;240;963;-54
2021/01/11 01:25:45;;;;;;;;;;;19.90;34.20;;;;;;491629;240;1043;-55
2021/01/11 01:27:46;;;;;;;;;;;19.90;34.20;;;;;;491716;240;1099;-54
2021/01/11 01:29:47;;;;;;;;;;;19.90;34.20;;;;;;491887;240;2141;-54
2021/01/11 01:31:49;;;;;;;;;;;19.90;34.20;;;;;;491689;240;1119;-55
2021/01/11 01:33:50;;;;;;;;;;;19.90;34.20;;;;;;491646;240;1548;-54
2021/01/11 01:35:51;;;;;;;;;;;19.90;34.20;;;;;;491657;240;1259;-54
2021/01/11 01:37:52;;;;;;;;;;;19.90;34.20;;;;;;491709;240;1176;-53
2021/01/11 01:39:54;;;;;;;;;;;19.90;32.80;;;;;;491642;240;1138;-54
2021/01/11 01:41:55;;;;;;;;;;;19.90;32.80;;;;;;491675;240;1479;-54
2021/01/11 01:43:56;;;;;;;;;;;19.90;34.20;;;;;;491663;240;1053;-54
2021/01/11 01:45:57;;;;;;;;;;;19.90;34.20;;;;;;491551;240;1337;-54
2021/01/11 01:47:59;;;;;;;;;;;19.90;34.20;;;;;;491673;240;1226;-54
2021/01/11 01:50:00;;;;;;;;;;;19.90;34.20;;;;;;491593;240;2200;-54
2021/01/11 01:52:01;;;;;;;;;;;19.90;34.10;;;;;;491692;240;1172;-54
2021/01/11 01:54:03;;;;;;;;;;;19.90;34.10;;;;;;491766;240;970;-54
2021/01/11 01:56:04;;;;;;;;;;;19.90;34.10;;;;;;491707;240;1216;-54
2021/01/11 01:58:05;;;;;;;;;;;19.90;34.10;;;;;;491771;240;1153;-54
2021/01/11 02:00:06;;;;;;;;;;;19.90;34.10;;;;;;491856;240;1223;-54
2021/01/11 02:02:08;;;;;;;;;;;19.90;34.10;;;;;;491635;240;1232;-54
2021/01/11 02:04:09;;;;;;;;;;;19.90;34.00;;;;;;491699;240;966;-54
2021/01/11 02:06:10;;;;;;;;;;;19.90;34.10;;;;;;491687;240;1169;-53
2021/01/11 02:08:12;;;;;;;;;;;19.90;34.20;;;;;;491677;240;998;-54
2021/01/11 02:10:13;;;;;;;;;;;19.90;34.10;;;;;;491771;240;2145;-53
2021/01/11 02:12:14;;;;;;;;;;;19.90;34.10;;;;;;491581;240;1203;-54
2021/01/11 02:14:16;;;;;;;;;;;19.90;34.00;;;;;;491623;240;1044;-54
2021/01/11 02:16:17;;;;;;;;;;;19.90;34.10;;;;;;491619;240;1140;-54
2021/01/11 02:18:18;;;;;;;;;;;19.90;34.10;;;;;;491810;240;1092;-54
2021/01/11 02:20:20;;;;;;;;;;;19.90;34.00;;;;;;491703;240;1329;-54
2021/01/11 02:22:21;;;;;;;;;;;19.90;34.00;;;;;;491642;240;1227;-54
2021/01/11 02:24:22;;;;;;;;;;;19.90;34.00;;;;;;491925;240;1089;-54
2021/01/11 02:26:23;;;;;;;;;;;19.90;34.00;;;;;;491565;240;1231;-54
2021/01/11 02:28:25;;;;;;;;;;;19.90;34.00;;;;;;491596;240;1082;-54
2021/01/11 02:30:26;;;;;;;;;;;19.90;34.00;;;;;;491623;240;2124;-54
2021/01/11 02:32:27;;;;;;;;;;;19.90;34.00;;;;;;491779;240;987;-54
2021/01/11 02:34:28;;;;;;;;;;;19.90;34.00;;;;;;491830;240;971;-54
2021/01/11 02:36:30;;;;;;;;;;;20.00;34.10;;;;;;491676;240;1173;-54
2021/01/11 02:38:31;;;;;;;;;;;19.90;34.00;;;;;;492038;240;992;-54
2021/01/11 02:40:32;;;;;;;;;;;19.90;34.00;;;;;;491826;240;936;-54
2021/01/11 02:42:34;;;;;;;;;;;19.90;34.00;;;;;;491795;240;971;-54
2021/01/11 02:44:35;;;;;;;;;;;20.00;34.00;;;;;;491676;240;1112;-54
2021/01/11 02:46:36;;;;;;;;;;;19.90;34.00;;;;;;491730;240;1038;-54
2021/01/11 02:48:37;;;;;;;;;;;19.90;34.00;;;;;;491684;240;959;-54
2021/01/11 02:50:39;;;;;;;;;;;20.00;34.00;;;;;;491565;240;2186;-54
2021/01/11 02:52:41;;;;;;;;;;;20.00;34.00;;;;;;491847;240;993;-54
2021/01/11 02:54:42;;;;;;;;;;;20.00;34.00;;;;;;491841;240;1010;-54
2021/01/11 02:56:43;;;;;;;;;;;20.00;34.00;;;;;;491638;240;2177;-54
2021/01/11 02:58:44;;;;;;;;;;;20.00;34.00;;;;;;491708;240;1069;-54
2021/01/11 03:00:46;;;;;;;;;;;20.00;34.10;;;;;;491667;240;1116;-54
2021/01/11 03:02:47;;;;;;;;;;;20.00;34.00;;;;;;491674;240;948;-54
2021/01/11 03:04:48;;;;;;;;;;;20.00;34.00;;;;;;491757;240;1131;-54
2021/01/11 03:06:49;;;;;;;;;;;20.00;34.00;;;;;;491541;240;1184;-54
2021/01/11 03:08:51;;;;;;;;;;;20.00;33.90;;;;;;491675;240;1039;-54
2021/01/11 03:10:52;;;;;;;;;;;20.00;34.00;;;;;;491642;240;2106;-54
2021/01/11 03:12:53;;;;;;;;;;;20.00;34.00;;;;;;491638;240;996;-55
2021/01/11 03:14:55;;;;;;;;;;;20.00;34.00;;;;;;491679;240;1044;-54
2021/01/11 03:16:56;;;;;;;;;;;20.00;34.00;;;;;;491594;240;1261;-54
2021/01/11 03:18:57;;;;;;;;;;;20.00;34.00;;;;;;491699;240;978;-54
2021/01/11 03:20:58;;;;;;;;;;;20.00;34.00;;;;;;491706;240;1344;-54
2021/01/11 03:23:00;;;;;;;;;;;20.00;34.00;;;;;;491952;240;1056;-54
2021/01/11 03:25:01;;;;;;;;;;;20.00;33.90;;;;;;491636;240;1230;-54
2021/01/11 03:27:02;;;;;;;;;;;20.00;34.00;;;;;;491572;240;1159;-54
2021/01/11 03:29:03;;;;;;;;;;;20.00;33.90;;;;;;491676;240;1037;-54
2021/01/11 03:31:05;;;;;;;;;;;20.00;34.00;;;;;;491652;240;2165;-54
2021/01/11 03:33:06;;;;;;;;;;;20.00;33.90;;;;;;491913;240;1021;-54
2021/01/11 03:35:07;;;;;;;;;;;20.00;34.00;;;;;;491639;240;1273;-54
2021/01/11 03:37:09;;;;;;;;;;;20.00;33.90;;;;;;491802;240;1179;-54
2021/01/11 03:39:10;;;;;;;;;;;20.00;34.00;;;;;;491686;240;1015;-54
2021/01/11 03:41:11;;;;;;;;;;;20.00;33.90;;;;;;491630;240;1109;-54
2021/01/11 03:43:12;;;;;;;;;;;20.00;33.90;;;;;;491709;240;1088;-54
2021/01/11 03:45:14;;;;;;;;;;;20.00;33.90;;;;;;491616;240;1195;-55
2021/01/11 03:47:15;;;;;;;;;;;20.00;33.90;;;;;;491672;240;1159;-54
2021/01/11 03:49:16;;;;;;;;;;;20.00;33.80;;;;;;491718;240;954;-53
2021/01/11 03:51:18;;;;;;;;;;;20.00;33.90;;;;;;491655;240;2188;-54
2021/01/11 03:53:19;;;;;;;;;;;20.00;33.90;;;;;;491671;240;1095;-54
2021/01/11 03:55:20;;;;;;;;;;;20.00;33.80;;;;;;491981;240;1172;-54
2021/01/11 03:57:22;;;;;;;;;;;20.00;33.80;;;;;;491604;240;1151;-54
2021/01/11 03:59:23;;;;;;;;;;;20.00;33.90;;;;;;491940;240;932;-54
2021/01/11 04:01:26;;;;;;;;;;;20.00;33.90;;;;;;491609;240;1249;-54
2021/01/11 04:03:26;;;;;;;;;;;20.00;33.80;;;;;;491656;242;1865;-54
2021/01/11 04:05:28;;;;;;;;;;;20.00;33.90;;;;;;491641;240;1206;-54
2021/01/11 04:07:28;;;;;;;;;;;20.00;33.90;;;;;;491680;240;1149;-54
2021/01/11 04:09:30;;;;;;;;;;;20.00;33.80;;;;;;491647;240;2199;-54
2021/01/11 04:11:31;;;;;;;;;;;20.00;33.90;;;;;;491614;240;1192;-53
2021/01/11 04:13:32;;;;;;;;;;;20.00;33.80;;;;;;491676;240;1049;-54
2021/01/11 04:15:33;;;;;;;;;;;20.00;33.80;;;;;;491630;240;1063;-54
2021/01/11 04:17:35;;;;;;;;;;;20.10;33.90;;;;;;491628;240;1020;-54
2021/01/11 04:19:36;;;;;;;;;;;20.10;33.90;;;;;;491688;240;956;-53
2021/01/11 04:21:37;;;;;;;;;;;20.00;33.80;;;;;;491737;240;1258;-54
2021/01/11 04:23:38;;;;;;;;;;;20.00;33.80;;;;;;491819;240;1050;-54
2021/01/11 04:25:40;;;;;;;;;;;20.00;33.80;;;;;;491615;240;1044;-54
2021/01/11 04:27:41;;;;;;;;;;;20.10;33.80;;;;;;491559;240;1235;-54
2021/01/11 04:29:42;;;;;;;;;;;20.00;33.80;;;;;;491608;240;2179;-54
2021/01/11 04:31:44;;;;;;;;;;;20.00;33.80;;;;;;491581;240;1248;-54
2021/01/11 04:33:45;;;;;;;;;;;20.10;33.90;;;;;;491620;240;1073;-54
2021/01/11 04:35:46;;;;;;;;;;;20.00;33.80;;;;;;491565;240;1126;-54
2021/01/11 04:37:49;;;;;;;;;;;20.10;33.80;;;;;;491667;240;1115;-54
2021/01/11 04:39:50;;;;;;;;;;;20.00;33.80;;;;;;491631;240;1044;-54
2021/01/11 04:41:51;;;;;;;;;;;20.10;33.90;;;;;;491682;240;1146;-54
2021/01/11 04:43:53;;;;;;;;;;;20.10;33.80;;;;;;491639;240;1034;-54
2021/01/11 04:45:54;;;;;;;;;;;20.10;33.80;;;;;;491759;240;1363;-54
2021/01/11 04:47:55;;;;;;;;;;;20.10;33.90;;;;;;491777;240;1040;-54
2021/01/11 04:49:56;;;;;;;;;;;20.10;33.80;;;;;;491738;240;2190;-54
2021/01/11 04:51:58;;;;;;;;;;;20.10;33.80;;;;;;491529;240;1314;-54
2021/01/11 04:53:59;;;;;;;;;;;20.10;33.80;;;;;;491602;240;1063;-54
2021/01/11 04:56:00;;;;;;;;;;;20.00;33.80;;;;;;491601;240;1210;-54
2021/01/11 04:58:01;;;;;;;;;;;20.10;33.80;;;;;;491795;240;1248;-54
2021/01/11 05:00:03;;;;;;;;;;;20.10;33.80;;;;;;491807;240;1072;-54
2021/01/11 05:02:04;;;;;;;;;;;20.10;33.80;;;;;;491598;240;1206;-54
2021/01/11 05:04:06;;;;;;;;;;;20.10;33.80;;;;;;491634;240;1046;-54
2021/01/11 05:06:07;;;;;;;;;;;20.10;33.70;;;;;;491569;240;1324;-54
2021/01/11 05:08:08;;;;;;;;;;;20.10;33.80;;;;;;491601;240;1181;-54
2021/01/11 05:10:10;;;;;;;;;;;20.10;33.70;;;;;;491628;240;2188;-54
2021/01/11 05:12:11;;;;;;;;;;;20.10;33.70;;;;;;491535;240;1105;-54
2021/01/11 05:14:12;;;;;;;;;;;20.10;32.40;;;;;;491620;240;1079;-54
2021/01/11 05:16:13;;;;;;;;;;;20.10;33.80;;;;;;491764;240;985;-54
2021/01/11 05:18:15;;;;;;;;;;;20.10;33.80;;;;;;491717;240;972;-54
2021/01/11 05:20:16;;;;;;;;;;;20.10;33.70;;;;;;491563;240;1023;-54
2021/01/11 05:22:17;;;;;;;;;;;20.10;33.80;;;;;;491548;239;1208;-54
2021/01/11 05:24:18;;;;;;;;;;;20.10;33.70;;;;;;491794;240;1045;-53
2021/01/11 05:26:20;;;;;;;;;;;20.10;33.70;;;;;;491649;240;1091;-54
2021/01/11 05:28:21;;;;;;;;;;;20.10;33.70;;;;;;491586;240;1176;-54
2021/01/11 05:30:23;;;;;;;;;;;20.10;32.40;;;;;;491530;240;2140;-54
2021/01/11 05:32:24;;;;;;;;;;;20.10;33.70;;;;;;491551;240;1123;-54
2021/01/11 05:34:25;;;;;;;;;;;20.10;33.70;;;;;;491396;240;1045;-55
2021/01/11 05:36:26;;;;;;;;;;;20.10;33.70;;;;;;491406;240;1021;-54
2021/01/11 05:38:28;;;;;;;;;;;20.10;33.70;;;;;;491511;240;1208;-54
2021/01/11 05:40:29;;;;;;;;;;;20.10;33.70;;;;;;491502;240;1028;-54
2021/01/11 05:42:30;;;;;;;;;;;20.10;33.80;;;;;;491693;240;1204;-54
2021/01/11 05:44:32;;;;;;;;;;;20.10;34.40;;;;;;491459;240;1036;-54
2021/01/11 05:46:33;;;;;;;;;;;20.10;34.00;;;;;;491389;240;1196;-54
2021/01/11 05:48:34;;;;;;;;;;;20.20;33.90;;;;;;491378;240;1085;-54
2021/01/11 05:50:35;;;;;;;;;;;20.10;33.80;;;;;;491499;240;2179;-54
2021/01/11 05:52:37;;;;;;;;;;;20.10;33.90;;;;;;491551;240;1324;-54
2021/01/11 05:54:38;;;;;;;;;;;20.00;34.00;;;;;;491510;240;1084;-54
2021/01/11 05:56:39;;;;;;;;;;;20.00;34.10;;;;;;491498;240;1231;-54
2021/01/11 05:58:42;;;;;;;;;;;19.90;34.10;;;;;;491439;240;1165;-54
2021/01/11 06:00:42;;;;;;;;;;;19.80;34.30;;;;;;491467;241;2293;-54
2021/01/11 06:02:43;;;;;;;;;;;19.80;34.30;;;;;;491232;240;1378;-54
2021/01/11 06:04:44;;;;;;;;;;;19.70;33.20;;;;;;491505;240;1133;-54
2021/01/11 06:06:46;;;;;;;;;;;19.70;33.20;;;;;;491307;240;1298;-54
2021/01/11 06:08:47;;;;;;;;;;;19.60;34.60;;;;;;491456;240;1148;-54
2021/01/11 06:10:50;;;;;;;;;;;19.60;34.70;;;;;;491353;240;2141;-54
2021/01/11 06:12:49;;;;;;;;;;;19.60;34.80;;;;;;491275;242;2289;-54
2021/01/11 06:14:51;;;;;;;;;;;19.50;34.80;;;;;;491425;240;1211;-54
2021/01/11 06:16:52;;;;;;;;;;;19.50;34.80;;;;;;491354;240;1145;-54
2021/01/11 06:18:53;;;;;;;;;;;19.40;34.90;;;;;;491420;240;1127;-54
2021/01/11 06:20:55;;;;;;;;;;;19.40;34.90;;;;;;491266;240;1292;-54
2021/01/11 06:22:56;;;;;;;;;;;19.40;35.00;;;;;;491335;240;1294;-54
2021/01/11 06:24:57;;;;;;;;;;;19.30;33.70;;;;;;491342;240;1228;-54
2021/01/11 06:26:58;;;;;;;;;;;19.30;35.10;;;;;;491316;240;1624;-54
2021/01/11 06:29:00;;;;;;;;;;;19.20;35.10;;;;;;491188;240;1056;-54
2021/01/11 06:31:01;;;;;;;;;;;19.20;35.20;;;;;;491105;240;2192;-54
2021/01/11 06:33:02;;;;;;;;;;;19.10;35.20;;;;;;491228;240;1057;-54
2021/01/11 06:35:03;;;;;;;;;;;19.10;35.20;;;;;;491386;240;1188;-53
2021/01/11 06:37:05;;;;;;;;;;;19.10;35.30;;;;;;491414;240;1282;-54
2021/01/11 06:39:06;;;;;;;;;;;19.10;35.30;;;;;;491342;240;1197;-54
2021/01/11 06:41:07;;;;;;;;;;;19.00;35.40;;;;;;491345;240;1233;-54
2021/01/11 06:43:09;;;;;;;;;;;19.00;35.40;;;;;;491350;240;1032;-54
2021/01/11 06:45:10;;;;;;;;;;;19.00;35.40;;;;;;491302;240;1266;-54
2021/01/11 06:47:11;;;;;;;;;;;18.90;35.40;;;;;;491315;240;1176;-54
2021/01/11 06:49:12;;;;;;;;;;;18.90;35.50;;;;;;491342;240;1165;-54
2021/01/11 06:51:17;;;;;;;;;;;18.90;35.50;;;;;;491171;240;2129;-54
2021/01/11 06:53:17;;;;;;;;;;;18.90;35.50;;;;;;491139;240;2533;-54
2021/01/11 06:55:19;;;;;;;;;;;18.90;35.60;;;;;;491124;240;1236;-54
2021/01/11 06:57:24;;;;;;;;;;;18.80;35.60;;;;;;491101;240;1157;-54
2021/01/11 06:59:21;;;;;;;;;;;18.80;34.30;;;;;;491168;241;1499;-54
2021/01/11 07:01:23;;;;;;;;;;;18.80;35.60;;;;;;491184;240;1043;-54
2021/01/11 07:03:24;;;;;;;;;;;18.80;35.70;;;;;;491376;240;1172;-54
2021/01/11 07:05:25;;;;;;;;;;;18.80;35.70;;;;;;491264;240;1033;-54
2021/01/11 07:07:26;;;;;;;;;;;18.70;35.70;;;;;;491124;240;1219;-54
2021/01/11 07:09:28;;;;;;;;;;;18.70;35.70;;;;;;491136;240;1200;-54
2021/01/11 07:11:29;;;;;;;;;;;18.70;35.70;;;;;;491102;240;2172;-54
2021/01/11 07:13:31;;;;;;;;;;;18.70;35.70;;;;;;491254;240;1164;-54
2021/01/11 07:15:32;;;;;;;;;;;18.70;35.80;;;;;;491177;240;1029;-53
2021/01/11 07:17:33;;;;;;;;;;;18.60;34.50;;;;;;491043;240;1233;-54
2021/01/11 07:19:34;;;;;;;;;;;18.60;35.80;;;;;;491044;240;1029;-54
2021/01/11 07:21:36;;;;;;;;;;;18.60;35.80;;;;;;491166;240;1043;-54
2021/01/11 07:23:37;;;;;;;;;;;18.60;35.80;;;;;;491057;240;1083;-54
2021/01/11 07:25:38;;;;;;;;;;;18.60;35.90;;;;;;491045;240;1051;-54
2021/01/11 07:27:40;;;;;;;;;;;18.60;35.90;;;;;;491160;240;971;-52
2021/01/11 07:29:41;;;;;;;;;;;18.50;35.80;;;;;;491164;240;1291;-54
2021/01/11 07:31:42;;;;;;;;;;;18.50;35.90;;;;;;491119;240;2154;-54
2021/01/11 07:33:43;;;;;;;;;;;18.50;35.90;;;;;;491119;240;1120;-54
2021/01/11 07:35:45;;;;;;;;;;;18.50;35.90;;;;;;491167;240;1360;-54
2021/01/11 07:37:46;;;;;;;;;;;18.40;34.60;;;;;;491146;240;1128;-54
2021/01/11 07:39:48;;;;;;;;;;;18.40;35.90;;;;;;491159;239;1314;-54
2021/01/11 07:41:48;;;;;;;;;;;18.40;35.90;;;;;;491017;240;2206;-54
2021/01/11 07:43:50;;;;;;;;;;;18.40;35.90;;;;;;491042;240;1011;-54
2021/01/11 07:45:51;;;;;;;;;;;18.40;36.00;;;;;;491052;240;1369;-53
2021/01/11 07:47:52;;;;;;;;;;;18.40;36.00;;;;;;490810;240;1297;-53
2021/01/11 07:49:54;;;;;;;;;;;18.40;36.00;;;;;;490886;240;992;-53
2021/01/11 07:51:55;;;;;;;;;;;18.40;36.00;;;;;;490859;240;2181;-54
2021/01/11 07:53:56;;;;;;;;;;;18.40;36.00;;;;;;490955;240;1037;-54
2021/01/11 07:55:58;;;;;;;;;;;18.30;36.00;;;;;;490970;240;1125;-53
2021/01/11 07:57:59;;;;;;;;;;;18.30;36.00;;;;;;491033;240;1204;-54
2021/01/11 08:00:00;;;;;;;;;;;18.30;36.00;;;;;;491061;240;1086;-54
2021/01/11 08:02:03;;;;;;;;;;;18.30;34.70;;;;;;490949;240;1326;-54
2021/01/11 08:04:03;;;;;;;;;;;18.30;36.00;;;;;;490916;242;2142;-54
2021/01/11 08:06:04;;;;;;;;;;;18.30;34.70;;;;;;491042;240;1190;-54
2021/01/11 08:08:06;;;;;;;;;;;18.30;34.70;;;;;;490998;240;1060;-54
2021/01/11 08:10:07;;;;;;;;;;;18.30;36.10;;;;;;490937;240;2485;-53
2021/01/11 08:12:08;;;;;;;;;;;18.30;34.80;;;;;;490860;240;2132;-54
2021/01/11 08:14:09;;;;;;;;;;;18.30;36.10;;;;;;490919;240;1041;-54
2021/01/11 08:16:11;;;;;;;;;;;18.30;34.70;;;;;;490783;240;1037;-54
2021/01/11 08:18:12;;;;;;;;;;;18.30;36.10;;;;;;490892;240;1126;-54
2021/01/11 08:20:13;;;;;;;;;;;18.30;36.00;;;;;;490833;240;1333;-54
2021/01/11 08:22:15;;;;;;;;;;;18.30;35.80;;;;;;490769;240;1170;-54
2021/01/11 08:24:16;;;;;;;;;;;18.30;35.70;;;;;;490811;240;1385;-54
2021/01/11 08:26:18;;;;;;;;;;;18.40;35.70;;;;;;490713;240;1138;-54
2021/01/11 08:28:19;;;;;;;;;;;18.40;34.20;;;;;;490740;240;1048;-54
2021/01/11 08:30:22;;;;;;;;;;;18.40;35.50;;;;;;490975;240;1328;-54
2021/01/11 08:32:21;;;;;;;;;;;18.40;35.50;;;;;;491025;241;2184;-54
2021/01/11 08:34:24;;;;;;;;;;;18.50;35.50;;;;;;490944;240;1305;-54
2021/01/11 08:36:27;;;;;;;;;;;18.50;35.50;;;;;;490735;240;1211;-54
2021/01/11 08:38:27;;;;;;;;;;;18.50;35.40;;;;;;490734;240;2270;-53
2021/01/11 08:40:28;;;;;;;;;;;18.50;35.40;;;;;;490792;240;1303;-54
2021/01/11 08:42:30;;;;;;;;;;;18.60;34.10;;;;;;490873;240;1117;-54
2021/01/11 08:44:31;;;;;;;;;;;18.60;35.40;;;;;;490981;240;1029;-54
2021/01/11 08:46:32;;;;;;;;;;;18.60;35.30;;;;;;490916;240;1192;-54
2021/01/11 08:48:34;;;;;;;;;;;18.60;35.30;;;;;;490842;240;1095;-54
2021/01/11 08:50:35;;;;;;;;;;;18.70;35.30;;;;;;490786;240;1412;-54
2021/01/11 08:52:36;;;;;;;;;;;18.60;35.20;;;;;;490734;240;2179;-54
2021/01/11 08:54:37;;;;;;;;;;;18.60;35.20;;;;;;490755;240;1118;-54
2021/01/11 08:56:39;;;;;;;;;;;18.70;35.20;;;;;;490670;240;1287;-54
2021/01/11 08:58:40;;;;;;;;;;;18.70;35.10;;;;;;490796;240;1126;-54
2021/01/11 09:00:41;;;;;;;;;;;18.70;35.10;;;;;;490653;240;1316;-54
2021/01/11 09:02:43;;;;;;;;;;;18.70;35.10;;;;;;490820;243;2339;-54
2021/01/11 09:04:47;;;;;;;;;;;18.80;35.10;;;;;;490987;240;1180;-54
2021/01/11 09:06:48;;;;;;;;;;;18.80;35.00;;;;;;490930;241;1252;-54
2021/01/11 09:08:49;;;;;;;;;;;18.80;35.00;;;;;;490998;240;1076;-54
2021/01/11 09:10:51;;;;;;;;;;;18.80;35.00;;;;;;490989;240;1205;-54
2021/01/11 09:12:52;;;;;;;;;;;18.80;35.00;;;;;;490890;240;2149;-53
2021/01/11 09:14:53;;;;;;;;;;;18.80;34.90;;;;;;490728;240;1134;-53
2021/01/11 09:16:54;;;;;;;;;;;18.90;34.90;;;;;;490708;240;1058;-54
2021/01/11 09:18:56;;;;;;;;;;;18.90;34.90;;;;;;490793;240;1085;-54
2021/01/11 09:20:57;;;;;;;;;;;18.90;34.80;;;;;;490711;240;1072;-54
2021/01/11 09:22:58;;;;;;;;;;;18.90;33.50;;;;;;490893;240;1218;-54
2021/01/11 09:24:59;;;;;;;;;;;18.90;34.70;;;;;;490857;240;1042;-54
2021/01/11 09:27:01;;;;;;;;;;;18.90;34.70;;;;;;490831;240;1134;-54
2021/01/11 09:29:02;;;;;;;;;;;19.00;33.50;;;;;;490852;240;1233;-54
2021/01/11 09:31:04;;;;;;;;;;;18.90;33.40;;;;;;490762;240;1062;-54
2021/01/11 09:33:05;;;;;;;;;;;19.00;34.70;;;;;;490879;240;2168;-54
2021/01/11 09:35:07;;;;;;;;;;;19.00;34.70;;;;;;490979;240;1299;-54
2021/01/11 09:37:08;;;;;;;;;;;19.00;34.60;;;;;;490911;240;1138;-53
2021/01/11 09:39:09;;;;;;;;;;;19.00;34.60;;;;;;490931;240;1247;-54
2021/01/11 09:41:12;;;;;;;;;;;19.00;34.70;;;;;;490768;240;1176;-54
2021/01/11 09:43:12;;;;;;;;;;;19.10;34.70;;;;;;490700;242;1396;-54
2021/01/11 09:45:13;;;;;;;;;;;19.10;33.30;;;;;;490708;240;1157;-54
2021/01/11 09:47:14;;;;;;;;;;;19.10;34.50;;;;;;490731;240;1143;-55
2021/01/11 09:49:16;;;;;;;;;;;19.10;34.50;;;;;;490824;240;1129;-54
2021/01/11 09:51:17;;;;;;;;;;;19.10;33.20;;;;;;490753;240;1289;-54
2021/01/11 09:53:18;;;;;;;;;;;19.10;34.50;;;;;;490825;240;2121;-54
2021/01/11 09:55:19;;;;;;;;;;;19.10;34.40;;;;;;490912;240;1071;-54
2021/01/11 09:57:21;;;;;;;;;;;19.10;34.50;;;;;;490850;240;1137;-54
2021/01/11 09:59:22;;;;;;;;;;;19.20;34.50;;;;;;490820;240;1059;-53
2021/01/11 10:01:23;;;;;;;;;;;19.20;34.40;;;;;;490701;240;1238;-53
2021/01/11 10:03:25;;;;;;;;;;;19.20;34.40;;;;;;490815;240;1283;-54
2021/01/11 10:05:28;;;;;;;;;;;19.20;34.40;;;;;;490857;240;1326;-54
2021/01/11 10:07:27;;;;;;;;;;;19.20;34.40;;;;;;490719;241;2507;-54
2021/01/11 10:09:29;;;;;;;;;;;19.20;33.10;;;;;;490737;240;1066;-54
2021/01/11 10:11:30;;;;;;;;;;;19.20;34.40;;;;;;490826;240;2153;-53
2021/01/11 10:13:31;;;;;;;;;;;19.20;34.30;;;;;;490888;240;1261;-54
2021/01/11 10:15:33;;;;;;;;;;;19.30;34.40;;;;;;490877;240;1265;-54
2021/01/11 10:17:34;;;;;;;;;;;19.30;34.40;;;;;;490854;240;1289;-54
2021/01/11 10:19:35;;;;;;;;;;;19.30;34.30;;;;;;490868;240;1057;-53
2021/01/11 10:21:36;;;;;;;;;;;19.30;33.00;;;;;;490930;240;1188;-54
2021/01/11 10:23:38;;;;;;;;;;;19.30;34.30;;;;;;490929;240;1100;-54
2021/01/11 10:25:39;;;;;;;;;;;19.30;34.30;;;;;;490971;240;1178;-54
2021/01/11 10:27:40;;;;;;;;;;;19.30;34.30;;;;;;490865;240;1184;-54
2021/01/11 10:29:41;;;;;;;;;;;19.30;34.30;;;;;;490948;240;1196;-54
2021/01/11 10:31:44;;;;;;;;;;;19.30;33.00;;;;;;490911;240;2180;-54
2021/01/11 10:33:44;;;;;;;;;;;19.30;34.30;;;;;;490696;240;2585;-53
2021/01/11 10:35:46;;;;;;;;;;;19.30;34.20;;;;;;490742;240;1284;-54
2021/01/11 10:37:47;;;;;;;;;;;19.30;34.30;;;;;;490835;240;1221;-54
2021/01/11 10:39:48;;;;;;;;;;;19.40;34.30;;;;;;491023;240;1145;-54
2021/01/11 10:41:50;;;;;;;;;;;19.40;34.40;;;;;;490846;240;1107;-54
2021/01/11 10:43:51;;;;;;;;;;;19.40;34.40;;;;;;490622;240;1251;-54
2021/01/11 10:45:52;;;;;;;;;;;19.40;34.40;;;;;;490711;240;1242;-54
2021/01/11 10:47:54;;;;;;;;;;;19.40;34.40;;;;;;490829;240;1091;-54
2021/01/11 10:49:55;;;;;;;;;;;19.40;34.50;;;;;;490748;240;1105;-54
2021/01/11 10:51:56;;;;;;;;;;;19.40;34.40;;;;;;490707;240;2196;-53
2021/01/11 10:53:58;;;;;;;;;;;19.40;34.50;;;;;;490599;240;1099;-54
2021/01/11 10:55:59;;;;;;;;;;;19.40;34.40;;;;;;490574;240;1365;-54
2021/01/11 10:58:00;;;;;;;;;;;19.40;33.10;;;;;;490519;240;1210;-54
2021/01/11 11:00:01;;;;;;;;;;;19.40;34.40;;;;;;490643;240;1217;-54
2021/01/11 11:02:03;;;;;;;;;;;19.50;34.40;;;;;;491129;240;1155;-54
2021/01/11 11:04:04;;;;;;;;;;;19.50;34.40;;;;;;490706;240;1167;-54
2021/01/11 11:06:05;;;;;;;;;;;19.50;34.40;;;;;;490930;240;1141;-54
2021/01/11 11:08:07;;;;;;;;;;;19.50;34.40;;;;;;490853;240;1118;-54
2021/01/11 11:10:08;;;;;;;;;;;19.50;33.10;;;;;;490889;240;1157;-54
2021/01/11 11:12:09;;;;;;;;;;;19.50;34.40;;;;;;490870;240;2207;-54
2021/01/11 11:14:11;;;;;;;;;;;19.50;34.40;;;;;;490931;240;1052;-54
2021/01/11 11:16:12;;;;;;;;;;;19.50;34.50;;;;;;490912;240;1052;-54
2021/01/11 11:18:13;;;;;;;;;;;19.60;34.40;;;;;;490761;240;1012;-54
2021/01/11 11:20:15;;;;;;;;;;;19.50;34.40;;;;;;490829;240;1019;-54
2021/01/11 11:22:16;;;;;;;;;;;19.60;33.10;;;;;;490805;240;1180;-53
2021/01/11 11:24:17;;;;;;;;;;;19.60;34.40;;;;;;490645;240;1129;-54
2021/01/11 11:26:18;;;;;;;;;;;19.60;34.40;;;;;;490825;240;1104;-54
2021/01/11 11:28:20;;;;;;;;;;;19.60;34.40;;;;;;491011;240;1197;-54
2021/01/11 11:30:21;;;;;;;;;;;19.60;34.30;;;;;;490953;240;1141;-54
2021/01/11 11:32:22;;;;;;;;;;;19.60;34.30;;;;;;490935;240;2179;-54
2021/01/11 11:34:24;;;;;;;;;;;19.60;34.30;;;;;;490947;240;1076;-54
2021/01/11 11:36:25;;;;;;;;;;;19.60;34.30;;;;;;490952;240;1127;-54
2021/01/11 11:38:27;;;;;;;;;;;19.60;34.20;;;;;;490696;240;1148;-54
2021/01/11 11:40:27;;;;;;;;;;;19.60;34.20;;;;;;490619;240;1366;-54
2021/01/11 11:42:29;;;;;;;;;;;19.70;32.90;;;;;;490968;240;1264;-54
2021/01/11 11:44:30;;;;;;;;;;;19.60;32.90;;;;;;490857;240;1038;-54
2021/01/11 11:46:31;;;;;;;;;;;19.70;34.30;;;;;;490934;240;1193;-54
2021/01/11 11:48:32;;;;;;;;;;;19.70;34.30;;;;;;490804;240;1225;-54
2021/01/11 11:50:34;;;;;;;;;;;19.70;34.30;;;;;;490778;240;1039;-54
2021/01/11 11:52:35;;;;;;;;;;;19.70;34.40;;;;;;490919;240;2199;-54
2021/01/11 11:54:36;;;;;;;;;;;19.70;34.30;;;;;;490894;240;1182;-54
2021/01/11 11:56:38;;;;;;;;;;;19.70;33.00;;;;;;490864;240;1600;-54